sensor_id;sensor_type;location;lat;lon;timestamp;temperature;humidity
61253;DHT22;47127;47.516;8.596;2023-06-01T00:02:15;17.20;77.80
61253;DHT22;47127;47.516;8.596;2023-06-01T00:04:40;17.20;78.50
61253;DHT22;47127;47.516;8.596;2023-06-01T00:07:09;17.10;78.80
61253;DHT22;47127;47.516;8.596;2023-06-01T00:09:36;17.10;79.00
61253;DHT22;47127;47.516;8.596;2023-06-01T00:12:02;17.10;79.20
61253;DHT22;47127;47.516;8.596;2023-06-01T00:14:28;17.10;79.30
61253;DHT22;47127;47.516;8.596;2023-06-01T00:16:54;17.10;79.50
61253;DHT22;47127;47.516;8.596;2023-06-01T00:19:21;17.10;79.30
61253;DHT22;47127;47.516;8.596;2023-06-01T00:21:47;17.00;80.90
61253;DHT22;47127;47.516;8.596;2023-06-01T00:24:13;16.90;81.70
61253;DHT22;47127;47.516;8.596;2023-06-01T00:26:38;16.80;82.20
61253;DHT22;47127;47.516;8.596;2023-06-01T00:29:04;16.60;82.40
61253;DHT22;47127;47.516;8.596;2023-06-01T00:31:29;16.60;82.60
61253;DHT22;47127;47.516;8.596;2023-06-01T00:33:55;16.50;82.90
61253;DHT22;47127;47.516;8.596;2023-06-01T00:36:20;16.50;82.70
61253;DHT22;47127;47.516;8.596;2023-06-01T00:38:46;16.50;82.60
61253;DHT22;47127;47.516;8.596;2023-06-01T00:41:12;16.60;82.80
61253;DHT22;47127;47.516;8.596;2023-06-01T00:43:37;16.60;84.60
61253;DHT22;47127;47.516;8.596;2023-06-01T00:46:03;16.30;85.90
61253;DHT22;47127;47.516;8.596;2023-06-01T00:48:29;16.20;86.20
61253;DHT22;47127;47.516;8.596;2023-06-01T00:50:55;16.20;86.30
61253;DHT22;47127;47.516;8.596;2023-06-01T00:53:22;16.20;86.50
61253;DHT22;47127;47.516;8.596;2023-06-01T00:55:51;16.30;86.30
61253;DHT22;47127;47.516;8.596;2023-06-01T00:58:16;16.30;86.30
61253;DHT22;47127;47.516;8.596;2023-06-01T01:00:42;16.20;86.10
61253;DHT22;47127;47.516;8.596;2023-06-01T01:03:07;16.20;86.40
61253;DHT22;47127;47.516;8.596;2023-06-01T01:05:37;16.20;86.40
61253;DHT22;47127;47.516;8.596;2023-06-01T01:08:24;16.20;86.60
61253;DHT22;47127;47.516;8.596;2023-06-01T01:11:24;16.30;86.30
61253;DHT22;47127;47.516;8.596;2023-06-01T01:16:31;16.40;86.80
61253;DHT22;47127;47.516;8.596;2023-06-01T01:21:45;16.30;86.80
61253;DHT22;47127;47.516;8.596;2023-06-01T01:24:31;16.40;86.40
61253;DHT22;47127;47.516;8.596;2023-06-01T01:27:10;16.30;86.70
61253;DHT22;47127;47.516;8.596;2023-06-01T01:29:40;16.20;87.40
61253;DHT22;47127;47.516;8.596;2023-06-01T01:32:07;16.20;87.40
61253;DHT22;47127;47.516;8.596;2023-06-01T01:34:34;16.10;87.50
61253;DHT22;47127;47.516;8.596;2023-06-01T01:37:02;16.10;87.50
61253;DHT22;47127;47.516;8.596;2023-06-01T01:39:28;15.90;89.30
61253;DHT22;47127;47.516;8.596;2023-06-01T01:41:54;15.80;89.50
61253;DHT22;47127;47.516;8.596;2023-06-01T01:44:20;15.60;90.30
61253;DHT22;47127;47.516;8.596;2023-06-01T01:47:08;15.40;90.50
61253;DHT22;47127;47.516;8.596;2023-06-01T01:49:43;15.50;90.50
61253;DHT22;47127;47.516;8.596;2023-06-01T01:52:19;15.60;90.50
61253;DHT22;47127;47.516;8.596;2023-06-01T01:54:47;15.60;90.70
61253;DHT22;47127;47.516;8.596;2023-06-01T01:57:16;15.70;90.50
61253;DHT22;47127;47.516;8.596;2023-06-01T01:59:45;15.70;90.30
61253;DHT22;47127;47.516;8.596;2023-06-01T02:02:11;15.90;90.10
61253;DHT22;47127;47.516;8.596;2023-06-01T02:04:43;15.90;90.00
61253;DHT22;47127;47.516;8.596;2023-06-01T02:07:09;16.00;89.80
61253;DHT22;47127;47.516;8.596;2023-06-01T02:09:35;16.10;89.30
61253;DHT22;47127;47.516;8.596;2023-06-01T02:12:02;16.10;89.50
61253;DHT22;47127;47.516;8.596;2023-06-01T02:14:28;16.10;90.10
61253;DHT22;47127;47.516;8.596;2023-06-01T02:16:54;16.10;90.30
61253;DHT22;47127;47.516;8.596;2023-06-01T02:19:20;15.90;90.40
61253;DHT22;47127;47.516;8.596;2023-06-01T02:21:46;15.80;90.40
61253;DHT22;47127;47.516;8.596;2023-06-01T02:24:12;15.80;90.40
61253;DHT22;47127;47.516;8.596;2023-06-01T02:26:38;15.90;90.80
61253;DHT22;47127;47.516;8.596;2023-06-01T02:29:03;15.90;91.10
61253;DHT22;47127;47.516;8.596;2023-06-01T02:31:33;15.90;90.90
61253;DHT22;47127;47.516;8.596;2023-06-01T02:33:59;15.90;91.00
61253;DHT22;47127;47.516;8.596;2023-06-01T02:36:28;15.90;90.90
61253;DHT22;47127;47.516;8.596;2023-06-01T02:38:57;15.80;90.90
61253;DHT22;47127;47.516;8.596;2023-06-01T02:41:23;15.60;91.30
61253;DHT22;47127;47.516;8.596;2023-06-01T02:43:50;15.40;91.90
61253;DHT22;47127;47.516;8.596;2023-06-01T02:46:16;15.20;92.40
61253;DHT22;47127;47.516;8.596;2023-06-01T02:48:43;14.90;93.10
61253;DHT22;47127;47.516;8.596;2023-06-01T02:51:08;14.80;93.80
61253;DHT22;47127;47.516;8.596;2023-06-01T02:53:34;14.50;94.30
61253;DHT22;47127;47.516;8.596;2023-06-01T02:55:59;14.40;94.90
61253;DHT22;47127;47.516;8.596;2023-06-01T02:58:25;14.50;95.00
61253;DHT22;47127;47.516;8.596;2023-06-01T03:00:50;14.60;94.80
61253;DHT22;47127;47.516;8.596;2023-06-01T03:03:16;14.80;94.60
61253;DHT22;47127;47.516;8.596;2023-06-01T03:05:43;14.90;94.30
61253;DHT22;47127;47.516;8.596;2023-06-01T03:08:10;15.00;94.10
61253;DHT22;47127;47.516;8.596;2023-06-01T03:10:35;14.90;94.40
61253;DHT22;47127;47.516;8.596;2023-06-01T03:13:01;14.70;94.60
61253;DHT22;47127;47.516;8.596;2023-06-01T03:15:26;14.70;94.80
61253;DHT22;47127;47.516;8.596;2023-06-01T03:17:53;14.70;95.00
61253;DHT22;47127;47.516;8.596;2023-06-01T03:20:18;14.70;95.00
61253;DHT22;47127;47.516;8.596;2023-06-01T03:22:45;14.90;94.80
61253;DHT22;47127;47.516;8.596;2023-06-01T03:25:11;15.00;94.60
61253;DHT22;47127;47.516;8.596;2023-06-01T03:27:41;15.00;94.60
61253;DHT22;47127;47.516;8.596;2023-06-01T03:30:08;15.10;94.60
61253;DHT22;47127;47.516;8.596;2023-06-01T03:32:37;15.00;94.80
61253;DHT22;47127;47.516;8.596;2023-06-01T03:35:04;15.00;94.90
61253;DHT22;47127;47.516;8.596;2023-06-01T03:37:29;15.00;94.80
61253;DHT22;47127;47.516;8.596;2023-06-01T03:39:55;15.00;94.70
61253;DHT22;47127;47.516;8.596;2023-06-01T03:42:20;14.90;94.90
61253;DHT22;47127;47.516;8.596;2023-06-01T03:44:46;14.80;95.10
61253;DHT22;47127;47.516;8.596;2023-06-01T03:47:12;14.80;95.40
61253;DHT22;47127;47.516;8.596;2023-06-01T03:49:39;14.90;95.40
61253;DHT22;47127;47.516;8.596;2023-06-01T03:52:06;15.00;95.20
61253;DHT22;47127;47.516;8.596;2023-06-01T03:54:32;15.10;95.30
61253;DHT22;47127;47.516;8.596;2023-06-01T03:56:57;15.20;95.20
61253;DHT22;47127;47.516;8.596;2023-06-01T03:59:23;15.20;95.40
61253;DHT22;47127;47.516;8.596;2023-06-01T04:01:49;15.20;95.40
61253;DHT22;47127;47.516;8.596;2023-06-01T04:04:15;15.10;95.40
61253;DHT22;47127;47.516;8.596;2023-06-01T04:06:42;15.00;96.10
61253;DHT22;47127;47.516;8.596;2023-06-01T04:09:10;14.90;96.30
61253;DHT22;47127;47.516;8.596;2023-06-01T04:11:39;14.90;96.50
61253;DHT22;47127;47.516;8.596;2023-06-01T04:14:05;14.90;96.80
61253;DHT22;47127;47.516;8.596;2023-06-01T04:16:31;14.90;96.80
61253;DHT22;47127;47.516;8.596;2023-06-01T04:18:56;15.10;96.90
61253;DHT22;47127;47.516;8.596;2023-06-01T04:21:22;15.10;96.80
61253;DHT22;47127;47.516;8.596;2023-06-01T04:23:49;14.80;97.10
61253;DHT22;47127;47.516;8.596;2023-06-01T04:26:15;14.90;97.10
61253;DHT22;47127;47.516;8.596;2023-06-01T04:28:41;14.90;96.90
61253;DHT22;47127;47.516;8.596;2023-06-01T04:31:15;15.00;96.90
61253;DHT22;47127;47.516;8.596;2023-06-01T04:33:46;15.20;97.00
61253;DHT22;47127;47.516;8.596;2023-06-01T04:36:24;15.20;96.80
61253;DHT22;47127;47.516;8.596;2023-06-01T04:38:52;15.30;96.80
61253;DHT22;47127;47.516;8.596;2023-06-01T04:41:23;15.30;96.80
61253;DHT22;47127;47.516;8.596;2023-06-01T04:43:49;15.40;97.00
61253;DHT22;47127;47.516;8.596;2023-06-01T04:46:22;15.40;96.80
61253;DHT22;47127;47.516;8.596;2023-06-01T04:48:50;15.50;96.70
61253;DHT22;47127;47.516;8.596;2023-06-01T04:51:20;15.50;96.60
61253;DHT22;47127;47.516;8.596;2023-06-01T04:53:48;15.40;96.60
61253;DHT22;47127;47.516;8.596;2023-06-01T04:56:21;15.30;96.60
61253;DHT22;47127;47.516;8.596;2023-06-01T04:58:53;15.40;96.70
61253;DHT22;47127;47.516;8.596;2023-06-01T05:01:18;15.40;96.60
61253;DHT22;47127;47.516;8.596;2023-06-01T05:03:47;15.50;96.40
61253;DHT22;47127;47.516;8.596;2023-06-01T05:06:13;15.50;97.00
61253;DHT22;47127;47.516;8.596;2023-06-01T05:08:39;15.50;96.90
61253;DHT22;47127;47.516;8.596;2023-06-01T05:11:06;15.50;97.00
61253;DHT22;47127;47.516;8.596;2023-06-01T05:13:40;15.60;97.10
61253;DHT22;47127;47.516;8.596;2023-06-01T05:16:07;15.50;97.00
61253;DHT22;47127;47.516;8.596;2023-06-01T05:18:34;15.70;96.70
61253;DHT22;47127;47.516;8.596;2023-06-01T05:21:00;15.80;96.20
61253;DHT22;47127;47.516;8.596;2023-06-01T05:23:26;15.80;96.00
61253;DHT22;47127;47.516;8.596;2023-06-01T05:25:52;15.90;95.90
61253;DHT22;47127;47.516;8.596;2023-06-01T05:28:20;16.00;96.40
61253;DHT22;47127;47.516;8.596;2023-06-01T05:30:46;16.10;95.60
61253;DHT22;47127;47.516;8.596;2023-06-01T05:33:12;16.20;95.60
61253;DHT22;47127;47.516;8.596;2023-06-01T05:35:39;16.20;95.40
61253;DHT22;47127;47.516;8.596;2023-06-01T05:38:04;16.30;95.70
61253;DHT22;47127;47.516;8.596;2023-06-01T05:40:30;16.30;95.40
61253;DHT22;47127;47.516;8.596;2023-06-01T05:42:55;16.30;95.30
61253;DHT22;47127;47.516;8.596;2023-06-01T05:45:21;16.40;94.70
61253;DHT22;47127;47.516;8.596;2023-06-01T05:47:46;16.40;94.70
61253;DHT22;47127;47.516;8.596;2023-06-01T05:50:12;16.50;95.00
61253;DHT22;47127;47.516;8.596;2023-06-01T05:52:38;16.70;95.60
61253;DHT22;47127;47.516;8.596;2023-06-01T05:55:06;16.70;95.50
61253;DHT22;47127;47.516;8.596;2023-06-01T05:57:32;16.80;95.30
61253;DHT22;47127;47.516;8.596;2023-06-01T05:59:57;16.90;95.20
61253;DHT22;47127;47.516;8.596;2023-06-01T06:02:23;17.00;95.30
61253;DHT22;47127;47.516;8.596;2023-06-01T06:04:49;17.00;95.40
61253;DHT22;47127;47.516;8.596;2023-06-01T06:07:15;17.20;95.40
61253;DHT22;47127;47.516;8.596;2023-06-01T06:09:41;17.20;95.30
61253;DHT22;47127;47.516;8.596;2023-06-01T06:12:07;17.40;95.00
61253;DHT22;47127;47.516;8.596;2023-06-01T06:14:32;17.50;94.30
61253;DHT22;47127;47.516;8.596;2023-06-01T06:16:58;17.70;94.00
61253;DHT22;47127;47.516;8.596;2023-06-01T06:19:25;17.80;93.70
61253;DHT22;47127;47.516;8.596;2023-06-01T06:21:51;17.80;93.20
61253;DHT22;47127;47.516;8.596;2023-06-01T06:24:16;17.80;92.90
61253;DHT22;47127;47.516;8.596;2023-06-01T06:26:42;17.90;92.80
61253;DHT22;47127;47.516;8.596;2023-06-01T06:29:07;18.00;92.80
61253;DHT22;47127;47.516;8.596;2023-06-01T06:31:33;18.10;92.50
61253;DHT22;47127;47.516;8.596;2023-06-01T06:33:59;18.10;92.60
61253;DHT22;47127;47.516;8.596;2023-06-01T06:36:25;18.20;93.00
61253;DHT22;47127;47.516;8.596;2023-06-01T06:38:51;18.30;92.90
61253;DHT22;47127;47.516;8.596;2023-06-01T06:41:16;18.40;92.30
61253;DHT22;47127;47.516;8.596;2023-06-01T06:43:42;18.40;92.10
61253;DHT22;47127;47.516;8.596;2023-06-01T06:46:07;18.50;91.90
61253;DHT22;47127;47.516;8.596;2023-06-01T06:48:33;18.40;91.80
61253;DHT22;47127;47.516;8.596;2023-06-01T06:50:59;18.50;91.80
61253;DHT22;47127;47.516;8.596;2023-06-01T06:53:24;18.60;91.20
61253;DHT22;47127;47.516;8.596;2023-06-01T06:55:50;18.80;90.50
61253;DHT22;47127;47.516;8.596;2023-06-01T06:58:15;18.90;89.30
61253;DHT22;47127;47.516;8.596;2023-06-01T07:00:41;18.90;89.60
61253;DHT22;47127;47.516;8.596;2023-06-01T07:03:07;19.00;90.10
61253;DHT22;47127;47.516;8.596;2023-06-01T07:05:33;19.20;90.10
61253;DHT22;47127;47.516;8.596;2023-06-01T07:07:58;19.20;90.10
61253;DHT22;47127;47.516;8.596;2023-06-01T07:10:24;19.20;89.70
61253;DHT22;47127;47.516;8.596;2023-06-01T07:12:51;19.40;89.00
61253;DHT22;47127;47.516;8.596;2023-06-01T07:15:17;19.40;88.80
61253;DHT22;47127;47.516;8.596;2023-06-01T07:17:43;19.50;89.30
61253;DHT22;47127;47.516;8.596;2023-06-01T07:20:10;19.50;88.90
61253;DHT22;47127;47.516;8.596;2023-06-01T07:22:39;19.50;88.40
61253;DHT22;47127;47.516;8.596;2023-06-01T07:25:05;19.60;87.90
61253;DHT22;47127;47.516;8.596;2023-06-01T07:27:31;19.60;87.60
61253;DHT22;47127;47.516;8.596;2023-06-01T07:30:01;19.70;87.60
61253;DHT22;47127;47.516;8.596;2023-06-01T07:32:27;19.80;87.30
61253;DHT22;47127;47.516;8.596;2023-06-01T07:34:52;19.90;86.90
61253;DHT22;47127;47.516;8.596;2023-06-01T07:37:18;19.90;86.40
61253;DHT22;47127;47.516;8.596;2023-06-01T07:39:48;19.90;86.30
61253;DHT22;47127;47.516;8.596;2023-06-01T07:42:14;20.00;86.10
61253;DHT22;47127;47.516;8.596;2023-06-01T07:44:40;19.90;86.50
61253;DHT22;47127;47.516;8.596;2023-06-01T07:47:06;20.00;86.00
61253;DHT22;47127;47.516;8.596;2023-06-01T07:49:32;20.10;85.40
61253;DHT22;47127;47.516;8.596;2023-06-01T07:52:00;20.00;85.80
61253;DHT22;47127;47.516;8.596;2023-06-01T07:54:26;20.10;85.70
61253;DHT22;47127;47.516;8.596;2023-06-01T07:56:52;20.30;85.20
61253;DHT22;47127;47.516;8.596;2023-06-01T07:59:19;20.30;85.40
61253;DHT22;47127;47.516;8.596;2023-06-01T08:01:49;20.30;85.00
61253;DHT22;47127;47.516;8.596;2023-06-01T08:04:16;20.50;84.90
61253;DHT22;47127;47.516;8.596;2023-06-01T08:06:42;20.60;85.30
61253;DHT22;47127;47.516;8.596;2023-06-01T08:09:08;20.60;84.70
61253;DHT22;47127;47.516;8.596;2023-06-01T08:11:35;20.60;84.60
61253;DHT22;47127;47.516;8.596;2023-06-01T08:14:01;20.70;84.80
61253;DHT22;47127;47.516;8.596;2023-06-01T08:16:28;20.80;84.80
61253;DHT22;47127;47.516;8.596;2023-06-01T08:18:55;21.00;83.70
61253;DHT22;47127;47.516;8.596;2023-06-01T08:21:22;20.90;83.40
61253;DHT22;47127;47.516;8.596;2023-06-01T08:23:51;20.80;84.10
61253;DHT22;47127;47.516;8.596;2023-06-01T08:26:18;20.70;84.80
61253;DHT22;47127;47.516;8.596;2023-06-01T08:28:44;20.80;85.40
61253;DHT22;47127;47.516;8.596;2023-06-01T08:31:17;20.80;85.50
61253;DHT22;47127;47.516;8.596;2023-06-01T08:33:43;20.90;85.40
61253;DHT22;47127;47.516;8.596;2023-06-01T08:36:08;20.70;85.60
61253;DHT22;47127;47.516;8.596;2023-06-01T08:38:34;20.70;85.70
61253;DHT22;47127;47.516;8.596;2023-06-01T08:41:03;20.80;85.40
61253;DHT22;47127;47.516;8.596;2023-06-01T08:43:31;20.80;85.30
61253;DHT22;47127;47.516;8.596;2023-06-01T08:45:58;20.90;85.40
61253;DHT22;47127;47.516;8.596;2023-06-01T08:48:27;20.90;85.50
61253;DHT22;47127;47.516;8.596;2023-06-01T08:50:53;21.10;85.40
61253;DHT22;47127;47.516;8.596;2023-06-01T08:53:20;21.10;84.50
61253;DHT22;47127;47.516;8.596;2023-06-01T08:55:51;21.10;84.40
61253;DHT22;47127;47.516;8.596;2023-06-01T08:58:17;21.00;84.80
61253;DHT22;47127;47.516;8.596;2023-06-01T09:00:43;21.10;84.90
61253;DHT22;47127;47.516;8.596;2023-06-01T09:03:08;21.20;86.10
61253;DHT22;47127;47.516;8.596;2023-06-01T09:05:35;21.50;84.90
61253;DHT22;47127;47.516;8.596;2023-06-01T09:08:01;21.60;84.90
61253;DHT22;47127;47.516;8.596;2023-06-01T09:10:27;21.80;84.50
61253;DHT22;47127;47.516;8.596;2023-06-01T09:12:54;21.80;84.70
61253;DHT22;47127;47.516;8.596;2023-06-01T09:15:21;22.00;83.20
61253;DHT22;47127;47.516;8.596;2023-06-01T09:17:48;22.10;82.10
61253;DHT22;47127;47.516;8.596;2023-06-01T09:20:27;22.30;81.90
61253;DHT22;47127;47.516;8.596;2023-06-01T09:22:54;22.50;82.50
61253;DHT22;47127;47.516;8.596;2023-06-01T09:25:27;22.60;82.20
61253;DHT22;47127;47.516;8.596;2023-06-01T09:27:54;22.40;82.30
61253;DHT22;47127;47.516;8.596;2023-06-01T09:30:22;22.40;82.20
61253;DHT22;47127;47.516;8.596;2023-06-01T09:32:49;22.50;81.80
61253;DHT22;47127;47.516;8.596;2023-06-01T09:35:40;22.60;81.60
61253;DHT22;47127;47.516;8.596;2023-06-01T09:38:05;22.70;81.90
61253;DHT22;47127;47.516;8.596;2023-06-01T09:40:32;22.90;81.60
61253;DHT22;47127;47.516;8.596;2023-06-01T09:42:59;23.10;80.80
61253;DHT22;47127;47.516;8.596;2023-06-01T09:45:25;23.10;80.50
61253;DHT22;47127;47.516;8.596;2023-06-01T09:47:51;23.20;81.00
61253;DHT22;47127;47.516;8.596;2023-06-01T09:50:38;23.20;80.90
61253;DHT22;47127;47.516;8.596;2023-06-01T09:53:06;23.20;80.70
61253;DHT22;47127;47.516;8.596;2023-06-01T09:55:33;23.30;81.40
61253;DHT22;47127;47.516;8.596;2023-06-01T09:58:21;23.30;80.70
61253;DHT22;47127;47.516;8.596;2023-06-01T10:00:49;23.30;81.50
61253;DHT22;47127;47.516;8.596;2023-06-01T10:03:16;23.30;80.10
61253;DHT22;47127;47.516;8.596;2023-06-01T10:05:45;23.20;79.90
61253;DHT22;47127;47.516;8.596;2023-06-01T10:08:12;23.50;79.80
61253;DHT22;47127;47.516;8.596;2023-06-01T10:10:40;23.70;79.90
61253;DHT22;47127;47.516;8.596;2023-06-01T10:13:07;23.80;80.10
61253;DHT22;47127;47.516;8.596;2023-06-01T10:15:32;23.90;80.10
61253;DHT22;47127;47.516;8.596;2023-06-01T10:18:00;23.90;78.90
61253;DHT22;47127;47.516;8.596;2023-06-01T10:20:26;23.90;80.10
61253;DHT22;47127;47.516;8.596;2023-06-01T10:22:52;23.90;79.30
61253;DHT22;47127;47.516;8.596;2023-06-01T10:25:21;23.90;79.30
61253;DHT22;47127;47.516;8.596;2023-06-01T10:27:55;23.90;79.10
61253;DHT22;47127;47.516;8.596;2023-06-01T10:30:22;24.30;78.90
61253;DHT22;47127;47.516;8.596;2023-06-01T10:32:47;24.40;77.70
61253;DHT22;47127;47.516;8.596;2023-06-01T10:40:42;25.00;75.40
61253;DHT22;47127;47.516;8.596;2023-06-01T10:46:37;24.90;76.00
61253;DHT22;47127;47.516;8.596;2023-06-01T10:49:04;24.90;75.70
61253;DHT22;47127;47.516;8.596;2023-06-01T10:51:30;24.80;76.10
61253;DHT22;47127;47.516;8.596;2023-06-01T10:54:26;24.80;76.50
61253;DHT22;47127;47.516;8.596;2023-06-01T10:57:25;25.10;74.90
61253;DHT22;47127;47.516;8.596;2023-06-01T11:00:18;25.10;75.00
61253;DHT22;47127;47.516;8.596;2023-06-01T11:02:45;24.90;74.80
61253;DHT22;47127;47.516;8.596;2023-06-01T11:13:30;25.50;73.00
61253;DHT22;47127;47.516;8.596;2023-06-01T11:18:51;25.40;73.30
61253;DHT22;47127;47.516;8.596;2023-06-01T11:21:35;25.80;72.00
61253;DHT22;47127;47.516;8.596;2023-06-01T11:24:06;26.10;73.30
61253;DHT22;47127;47.516;8.596;2023-06-01T11:26:40;26.10;71.70
61253;DHT22;47127;47.516;8.596;2023-06-01T11:29:15;26.10;72.70
61253;DHT22;47127;47.516;8.596;2023-06-01T11:31:46;26.20;72.30
61253;DHT22;47127;47.516;8.596;2023-06-01T11:34:14;26.50;71.20
61253;DHT22;47127;47.516;8.596;2023-06-01T11:37:00;26.50;70.70
61253;DHT22;47127;47.516;8.596;2023-06-01T11:39:38;26.60;70.10
61253;DHT22;47127;47.516;8.596;2023-06-01T11:42:11;26.80;71.80
61253;DHT22;47127;47.516;8.596;2023-06-01T11:44:39;27.00;72.20
61253;DHT22;47127;47.516;8.596;2023-06-01T11:47:06;27.00;69.10
61253;DHT22;47127;47.516;8.596;2023-06-01T11:49:46;26.70;70.20
61253;DHT22;47127;47.516;8.596;2023-06-01T11:52:20;26.80;70.30
61253;DHT22;47127;47.516;8.596;2023-06-01T11:54:46;26.90;69.50
61253;DHT22;47127;47.516;8.596;2023-06-01T11:57:12;26.80;69.90
61253;DHT22;47127;47.516;8.596;2023-06-01T11:59:43;27.00;69.90
61253;DHT22;47127;47.516;8.596;2023-06-01T12:02:23;27.00;69.50
61253;DHT22;47127;47.516;8.596;2023-06-01T12:05:03;26.70;70.00
61253;DHT22;47127;47.516;8.596;2023-06-01T12:07:46;27.10;69.80
61253;DHT22;47127;47.516;8.596;2023-06-01T12:10:13;27.20;68.60
61253;DHT22;47127;47.516;8.596;2023-06-01T12:12:41;27.20;69.30
61253;DHT22;47127;47.516;8.596;2023-06-01T12:15:09;27.20;68.60
61253;DHT22;47127;47.516;8.596;2023-06-01T12:17:49;27.50;69.60
61253;DHT22;47127;47.516;8.596;2023-06-01T12:20:35;27.60;67.70
61253;DHT22;47127;47.516;8.596;2023-06-01T12:23:11;27.80;67.40
61253;DHT22;47127;47.516;8.596;2023-06-01T12:25:57;27.80;67.00
61253;DHT22;47127;47.516;8.596;2023-06-01T12:28:26;27.70;67.60
61253;DHT22;47127;47.516;8.596;2023-06-01T12:44:42;28.40;65.10
61253;DHT22;47127;47.516;8.596;2023-06-01T12:47:08;28.30;65.00
61253;DHT22;47127;47.516;8.596;2023-06-01T12:49:34;28.60;64.60
61253;DHT22;47127;47.516;8.596;2023-06-01T12:51:59;28.50;65.30
61253;DHT22;47127;47.516;8.596;2023-06-01T12:54:26;28.40;63.70
61253;DHT22;47127;47.516;8.596;2023-06-01T12:56:52;28.00;63.70
61253;DHT22;47127;47.516;8.596;2023-06-01T12:59:21;28.20;63.00
61253;DHT22;47127;47.516;8.596;2023-06-01T13:01:47;28.20;62.30
61253;DHT22;47127;47.516;8.596;2023-06-01T13:04:13;28.60;61.80
61253;DHT22;47127;47.516;8.596;2023-06-01T13:06:39;28.90;61.50
61253;DHT22;47127;47.516;8.596;2023-06-01T13:09:05;28.80;62.50
61253;DHT22;47127;47.516;8.596;2023-06-01T13:11:31;29.00;61.40
61253;DHT22;47127;47.516;8.596;2023-06-01T13:13:57;29.00;60.40
61253;DHT22;47127;47.516;8.596;2023-06-01T13:16:23;29.20;59.40
61253;DHT22;47127;47.516;8.596;2023-06-01T13:18:48;29.40;60.50
61253;DHT22;47127;47.516;8.596;2023-06-01T13:21:16;29.40;59.90
61253;DHT22;47127;47.516;8.596;2023-06-01T13:23:42;29.30;59.60
61253;DHT22;47127;47.516;8.596;2023-06-01T13:26:09;29.20;60.40
61253;DHT22;47127;47.516;8.596;2023-06-01T13:28:35;29.20;60.40
61253;DHT22;47127;47.516;8.596;2023-06-01T13:31:02;29.40;60.60
61253;DHT22;47127;47.516;8.596;2023-06-01T13:33:27;29.40;59.50
61253;DHT22;47127;47.516;8.596;2023-06-01T13:35:53;29.00;60.70
61253;DHT22;47127;47.516;8.596;2023-06-01T13:38:18;29.10;59.90
61253;DHT22;47127;47.516;8.596;2023-06-01T13:40:44;29.50;59.30
61253;DHT22;47127;47.516;8.596;2023-06-01T13:43:10;29.60;59.10
61253;DHT22;47127;47.516;8.596;2023-06-01T13:45:35;29.90;60.30
61253;DHT22;47127;47.516;8.596;2023-06-01T13:48:01;29.80;61.20
61253;DHT22;47127;47.516;8.596;2023-06-01T13:50:28;29.60;59.00
61253;DHT22;47127;47.516;8.596;2023-06-01T13:52:53;29.40;58.10
61253;DHT22;47127;47.516;8.596;2023-06-01T13:55:19;29.50;57.80
61253;DHT22;47127;47.516;8.596;2023-06-01T13:57:45;29.90;57.70
61253;DHT22;47127;47.516;8.596;2023-06-01T14:00:11;29.90;58.20
61253;DHT22;47127;47.516;8.596;2023-06-01T14:02:37;30.40;57.20
61253;DHT22;47127;47.516;8.596;2023-06-01T14:05:03;30.60;56.00
61253;DHT22;47127;47.516;8.596;2023-06-01T14:07:29;30.40;54.90
61253;DHT22;47127;47.516;8.596;2023-06-01T14:09:55;29.90;54.40
61253;DHT22;47127;47.516;8.596;2023-06-01T14:12:20;30.20;56.90
61253;DHT22;47127;47.516;8.596;2023-06-01T14:14:46;30.40;56.40
61253;DHT22;47127;47.516;8.596;2023-06-01T14:17:12;30.30;56.80
61253;DHT22;47127;47.516;8.596;2023-06-01T14:19:37;30.00;56.30
61253;DHT22;47127;47.516;8.596;2023-06-01T14:22:03;30.10;56.10
61253;DHT22;47127;47.516;8.596;2023-06-01T14:24:28;30.10;57.60
61253;DHT22;47127;47.516;8.596;2023-06-01T14:26:54;30.00;56.40
61253;DHT22;47127;47.516;8.596;2023-06-01T14:29:19;29.90;55.90
61253;DHT22;47127;47.516;8.596;2023-06-01T14:31:45;30.20;56.40
61253;DHT22;47127;47.516;8.596;2023-06-01T14:34:11;30.50;57.10
61253;DHT22;47127;47.516;8.596;2023-06-01T14:36:37;30.90;56.20
61253;DHT22;47127;47.516;8.596;2023-06-01T14:39:02;31.00;55.70
61253;DHT22;47127;47.516;8.596;2023-06-01T14:41:28;30.90;55.70
61253;DHT22;47127;47.516;8.596;2023-06-01T14:43:53;30.90;55.90
61253;DHT22;47127;47.516;8.596;2023-06-01T14:46:19;31.00;55.30
61253;DHT22;47127;47.516;8.596;2023-06-01T14:48:46;31.10;56.20
61253;DHT22;47127;47.516;8.596;2023-06-01T14:51:12;31.00;55.30
61253;DHT22;47127;47.516;8.596;2023-06-01T14:53:37;31.10;55.40
61253;DHT22;47127;47.516;8.596;2023-06-01T14:56:05;30.80;54.90
61253;DHT22;47127;47.516;8.596;2023-06-01T14:58:30;30.70;55.80
61253;DHT22;47127;47.516;8.596;2023-06-01T15:00:56;30.70;52.60
61253;DHT22;47127;47.516;8.596;2023-06-01T15:03:22;30.80;52.10
61253;DHT22;47127;47.516;8.596;2023-06-01T15:05:48;30.90;53.10
61253;DHT22;47127;47.516;8.596;2023-06-01T15:08:14;31.00;52.80
61253;DHT22;47127;47.516;8.596;2023-06-01T15:10:40;30.90;53.40
61253;DHT22;47127;47.516;8.596;2023-06-01T15:13:06;31.20;52.30
61253;DHT22;47127;47.516;8.596;2023-06-01T15:15:31;31.20;52.30
61253;DHT22;47127;47.516;8.596;2023-06-01T15:17:57;31.50;52.20
61253;DHT22;47127;47.516;8.596;2023-06-01T15:20:22;31.40;51.70
61253;DHT22;47127;47.516;8.596;2023-06-01T15:22:48;31.50;51.50
61253;DHT22;47127;47.516;8.596;2023-06-01T15:25:13;31.70;52.20
61253;DHT22;47127;47.516;8.596;2023-06-01T15:27:39;31.70;53.90
61253;DHT22;47127;47.516;8.596;2023-06-01T15:30:05;31.50;52.70
61253;DHT22;47127;47.516;8.596;2023-06-01T15:32:31;31.50;53.60
61253;DHT22;47127;47.516;8.596;2023-06-01T15:34:57;31.10;52.90
61253;DHT22;47127;47.516;8.596;2023-06-01T15:37:22;31.30;53.40
61253;DHT22;47127;47.516;8.596;2023-06-01T15:39:48;31.00;53.90
61253;DHT22;47127;47.516;8.596;2023-06-01T15:42:14;31.50;53.20
61253;DHT22;47127;47.516;8.596;2023-06-01T15:44:43;31.60;52.60
61253;DHT22;47127;47.516;8.596;2023-06-01T15:47:10;31.80;53.60
61253;DHT22;47127;47.516;8.596;2023-06-01T15:49:38;31.80;52.90
61253;DHT22;47127;47.516;8.596;2023-06-01T15:52:07;31.60;52.90
61253;DHT22;47127;47.516;8.596;2023-06-01T15:54:34;31.40;53.10
61253;DHT22;47127;47.516;8.596;2023-06-01T15:57:00;31.40;52.90
61253;DHT22;47127;47.516;8.596;2023-06-01T15:59:26;31.30;53.60
61253;DHT22;47127;47.516;8.596;2023-06-01T16:01:52;31.20;54.30
61253;DHT22;47127;47.516;8.596;2023-06-01T16:04:17;31.50;54.00
61253;DHT22;47127;47.516;8.596;2023-06-01T16:06:43;31.80;53.70
61253;DHT22;47127;47.516;8.596;2023-06-01T16:09:09;32.00;53.80
61253;DHT22;47127;47.516;8.596;2023-06-01T16:11:34;32.10;52.50
61253;DHT22;47127;47.516;8.596;2023-06-01T16:14:00;32.00;53.30